sensor_id;sensor_type;location;lat;lon;timestamp;P1;durP1;ratioP1;P2;durP2;ratioP2
38811;SDS011;24553;51.640;-0.752;2023-02-11T00:01:30;7.65;;;3.88;;
38811;SDS011;24553;51.640;-0.752;2023-02-11T00:03:57;6.47;;;3.80;;
38811;SDS011;24553;51.640;-0.752;2023-02-11T00:06:24;5.45;;;3.88;;
38811;SDS011;24553;51.640;-0.752;2023-02-11T00:08:51;10.13;;;5.75;;
38811;SDS011;24553;51.640;-0.752;2023-02-11T00:11:18;8.45;;;4.20;;
38811;SDS011;24553;51.640;-0.752;2023-02-11T00:13:44;5.47;;;3.25;;
38811;SDS011;24553;51.640;-0.752;2023-02-11T00:16:12;8.88;;;4.60;;
38811;SDS011;24553;51.640;-0.752;2023-02-11T00:18:39;6.75;;;4.45;;
38811;SDS011;24553;51.640;-0.752;2023-02-11T00:21:06;5.65;;;3.15;;
38811;SDS011;24553;51.640;-0.752;2023-02-11T00:23:33;11.32;;;5.15;;
38811;SDS011;24553;51.640;-0.752;2023-02-11T00:25:58;7.88;;;5.95;;
38811;SDS011;24553;51.640;-0.752;2023-02-11T00:28:23;7.15;;;4.68;;
38811;SDS011;24553;51.640;-0.752;2023-02-11T00:30:55;7.28;;;4.55;;
38811;SDS011;24553;51.640;-0.752;2023-02-11T00:33:21;8.75;;;4.85;;
38811;SDS011;24553;51.640;-0.752;2023-02-11T00:35:47;13.75;;;5.75;;
38811;SDS011;24553;51.640;-0.752;2023-02-11T00:38:12;8.02;;;5.13;;
38811;SDS011;24553;51.640;-0.752;2023-02-11T00:40:37;7.80;;;4.85;;
38811;SDS011;24553;51.640;-0.752;2023-02-11T00:43:03;11.32;;;6.40;;
38811;SDS011;24553;51.640;-0.752;2023-02-11T00:45:28;8.85;;;5.28;;
38811;SDS011;24553;51.640;-0.752;2023-02-11T00:47:54;9.80;;;5.07;;
38811;SDS011;24553;51.640;-0.752;2023-02-11T00:50:20;8.88;;;4.95;;
38811;SDS011;24553;51.640;-0.752;2023-02-11T00:52:46;9.93;;;5.90;;
38811;SDS011;24553;51.640;-0.752;2023-02-11T00:55:11;12.85;;;7.18;;
38811;SDS011;24553;51.640;-0.752;2023-02-11T00:57:37;7.20;;;5.05;;
38811;SDS011;24553;51.640;-0.752;2023-02-11T01:00:03;6.82;;;4.55;;
38811;SDS011;24553;51.640;-0.752;2023-02-11T01:02:31;11.43;;;5.07;;
38811;SDS011;24553;51.640;-0.752;2023-02-11T01:04:56;5.95;;;4.90;;
38811;SDS011;24553;51.640;-0.752;2023-02-11T01:07:23;5.28;;;4.25;;
38811;SDS011;24553;51.640;-0.752;2023-02-11T01:09:49;8.18;;;4.50;;
38811;SDS011;24553;51.640;-0.752;2023-02-11T01:12:14;12.25;;;4.68;;
38811;SDS011;24553;51.640;-0.752;2023-02-11T01:14:40;10.10;;;5.82;;
38811;SDS011;24553;51.640;-0.752;2023-02-11T01:17:05;7.35;;;5.53;;
38811;SDS011;24553;51.640;-0.752;2023-02-11T01:19:31;6.40;;;4.63;;
38811;SDS011;24553;51.640;-0.752;2023-02-11T01:21:56;6.57;;;4.60;;
38811;SDS011;24553;51.640;-0.752;2023-02-11T01:24:21;11.45;;;4.97;;
38811;SDS011;24553;51.640;-0.752;2023-02-11T01:26:47;8.38;;;5.28;;
38811;SDS011;24553;51.640;-0.752;2023-02-11T01:29:12;9.65;;;5.28;;
38811;SDS011;24553;51.640;-0.752;2023-02-11T01:31:37;9.50;;;5.85;;
38811;SDS011;24553;51.640;-0.752;2023-02-11T01:34:02;8.55;;;5.47;;
38811;SDS011;24553;51.640;-0.752;2023-02-11T01:36:28;6.78;;;5.13;;
38811;SDS011;24553;51.640;-0.752;2023-02-11T01:38:53;7.00;;;5.15;;
38811;SDS011;24553;51.640;-0.752;2023-02-11T01:41:18;6.07;;;4.43;;
38811;SDS011;24553;51.640;-0.752;2023-02-11T01:43:45;9.98;;;5.32;;
38811;SDS011;24553;51.640;-0.752;2023-02-11T01:46:29;9.23;;;5.53;;
38811;SDS011;24553;51.640;-0.752;2023-02-11T01:51:43;7.30;;;4.95;;
38811;SDS011;24553;51.640;-0.752;2023-02-11T01:54:13;10.00;;;4.28;;
38811;SDS011;24553;51.640;-0.752;2023-02-11T01:57:00;7.03;;;4.30;;
38811;SDS011;24553;51.640;-0.752;2023-02-11T02:00:04;7.20;;;5.35;;
38811;SDS011;24553;51.640;-0.752;2023-02-11T02:02:32;7.35;;;4.10;;
38811;SDS011;24553;51.640;-0.752;2023-02-11T02:10:53;6.82;;;4.05;;
38811;SDS011;24553;51.640;-0.752;2023-02-11T02:13:21;5.78;;;3.10;;
38811;SDS011;24553;51.640;-0.752;2023-02-11T02:15:48;5.72;;;4.15;;
38811;SDS011;24553;51.640;-0.752;2023-02-11T02:37:39;4.40;;;3.67;;
38811;SDS011;24553;51.640;-0.752;2023-02-11T02:40:16;5.70;;;3.53;;
38811;SDS011;24553;51.640;-0.752;2023-02-11T02:42:46;6.13;;;4.50;;
38811;SDS011;24553;51.640;-0.752;2023-02-11T02:45:13;6.15;;;3.33;;
38811;SDS011;24553;51.640;-0.752;2023-02-11T02:47:39;7.88;;;3.38;;
38811;SDS011;24553;51.640;-0.752;2023-02-11T02:50:04;6.68;;;3.78;;
38811;SDS011;24553;51.640;-0.752;2023-02-11T02:52:40;5.97;;;3.25;;
38811;SDS011;24553;51.640;-0.752;2023-02-11T02:57:59;9.15;;;3.05;;
38811;SDS011;24553;51.640;-0.752;2023-02-11T03:00:53;3.95;;;2.58;;
38811;SDS011;24553;51.640;-0.752;2023-02-11T03:09:13;6.68;;;4.68;;
38811;SDS011;24553;51.640;-0.752;2023-02-11T03:11:46;5.18;;;3.47;;
38811;SDS011;24553;51.640;-0.752;2023-02-11T03:14:12;5.90;;;3.28;;
38811;SDS011;24553;51.640;-0.752;2023-02-11T03:16:41;4.32;;;3.15;;
38811;SDS011;24553;51.640;-0.752;2023-02-11T03:19:11;5.45;;;3.50;;
38811;SDS011;24553;51.640;-0.752;2023-02-11T03:21:43;6.60;;;4.63;;
38811;SDS011;24553;51.640;-0.752;2023-02-11T03:24:18;5.80;;;4.32;;
38811;SDS011;24553;51.640;-0.752;2023-02-11T03:26:52;6.40;;;4.10;;
38811;SDS011;24553;51.640;-0.752;2023-02-11T03:29:29;7.63;;;4.07;;
38811;SDS011;24553;51.640;-0.752;2023-02-11T03:32:17;8.55;;;4.20;;
38811;SDS011;24553;51.640;-0.752;2023-02-11T03:38:03;4.53;;;3.03;;
38811;SDS011;24553;51.640;-0.752;2023-02-11T03:40:30;7.85;;;3.58;;
38811;SDS011;24553;51.640;-0.752;2023-02-11T03:43:00;6.65;;;3.42;;
38811;SDS011;24553;51.640;-0.752;2023-02-11T03:45:30;6.45;;;3.63;;
38811;SDS011;24553;51.640;-0.752;2023-02-11T03:48:00;4.93;;;3.40;;
38811;SDS011;24553;51.640;-0.752;2023-02-11T03:50:29;5.30;;;3.92;;
38811;SDS011;24553;51.640;-0.752;2023-02-11T03:52:57;8.32;;;4.07;;
38811;SDS011;24553;51.640;-0.752;2023-02-11T03:55:26;8.63;;;4.25;;
38811;SDS011;24553;51.640;-0.752;2023-02-11T03:57:52;6.03;;;4.15;;
38811;SDS011;24553;51.640;-0.752;2023-02-11T04:00:18;7.60;;;3.65;;
38811;SDS011;24553;51.640;-0.752;2023-02-11T04:02:43;7.10;;;3.75;;
38811;SDS011;24553;51.640;-0.752;2023-02-11T04:05:09;9.75;;;4.85;;
38811;SDS011;24553;51.640;-0.752;2023-02-11T04:07:36;4.55;;;3.17;;
38811;SDS011;24553;51.640;-0.752;2023-02-11T04:10:02;7.85;;;3.38;;
38811;SDS011;24553;51.640;-0.752;2023-02-11T04:12:28;10.68;;;3.25;;
38811;SDS011;24553;51.640;-0.752;2023-02-11T04:14:53;6.43;;;4.38;;
38811;SDS011;24553;51.640;-0.752;2023-02-11T04:17:18;6.18;;;3.63;;
38811;SDS011;24553;51.640;-0.752;2023-02-11T04:19:44;6.85;;;2.53;;
38811;SDS011;24553;51.640;-0.752;2023-02-11T04:22:09;9.65;;;3.80;;
38811;SDS011;24553;51.640;-0.752;2023-02-11T04:24:34;5.90;;;3.13;;
38811;SDS011;24553;51.640;-0.752;2023-02-11T04:27:00;7.53;;;3.42;;
38811;SDS011;24553;51.640;-0.752;2023-02-11T04:29:25;5.05;;;3.17;;
38811;SDS011;24553;51.640;-0.752;2023-02-11T04:31:52;5.85;;;3.90;;
38811;SDS011;24553;51.640;-0.752;2023-02-11T04:34:18;7.65;;;4.47;;
38811;SDS011;24553;51.640;-0.752;2023-02-11T04:36:43;6.63;;;3.95;;
38811;SDS011;24553;51.640;-0.752;2023-02-11T04:39:09;11.23;;;3.22;;
38811;SDS011;24553;51.640;-0.752;2023-02-11T04:41:34;7.03;;;3.22;;
38811;SDS011;24553;51.640;-0.752;2023-02-11T04:43:59;6.00;;;2.40;;
38811;SDS011;24553;51.640;-0.752;2023-02-11T04:46:25;11.77;;;4.10;;
38811;SDS011;24553;51.640;-0.752;2023-02-11T04:48:51;6.97;;;3.75;;
38811;SDS011;24553;51.640;-0.752;2023-02-11T04:51:16;5.05;;;3.40;;
38811;SDS011;24553;51.640;-0.752;2023-02-11T04:53:42;6.07;;;2.40;;
38811;SDS011;24553;51.640;-0.752;2023-02-11T04:56:07;4.50;;;2.03;;
38811;SDS011;24553;51.640;-0.752;2023-02-11T04:58:33;9.23;;;2.40;;
38811;SDS011;24553;51.640;-0.752;2023-02-11T05:01:08;4.07;;;2.08;;
38811;SDS011;24553;51.640;-0.752;2023-02-11T05:03:35;5.15;;;3.25;;
38811;SDS011;24553;51.640;-0.752;2023-02-11T05:06:00;4.03;;;2.58;;
38811;SDS011;24553;51.640;-0.752;2023-02-11T05:08:26;5.18;;;2.30;;
38811;SDS011;24553;51.640;-0.752;2023-02-11T05:10:52;2.30;;;1.85;;
38811;SDS011;24553;51.640;-0.752;2023-02-11T05:13:17;3.85;;;2.20;;
38811;SDS011;24553;51.640;-0.752;2023-02-11T05:15:42;3.60;;;1.92;;
38811;SDS011;24553;51.640;-0.752;2023-02-11T05:18:08;7.07;;;2.95;;
38811;SDS011;24553;51.640;-0.752;2023-02-11T05:20:33;2.53;;;2.08;;
38811;SDS011;24553;51.640;-0.752;2023-02-11T05:22:58;4.18;;;2.53;;
38811;SDS011;24553;51.640;-0.752;2023-02-11T05:25:24;5.38;;;3.42;;
38811;SDS011;24553;51.640;-0.752;2023-02-11T05:27:49;2.70;;;1.90;;
38811;SDS011;24553;51.640;-0.752;2023-02-11T05:30:14;7.80;;;3.47;;
38811;SDS011;24553;51.640;-0.752;2023-02-11T05:32:40;9.90;;;4.72;;
38811;SDS011;24553;51.640;-0.752;2023-02-11T05:35:05;10.18;;;3.40;;
38811;SDS011;24553;51.640;-0.752;2023-02-11T05:37:31;7.38;;;3.28;;
38811;SDS011;24553;51.640;-0.752;2023-02-11T05:39:57;5.82;;;3.47;;
38811;SDS011;24553;51.640;-0.752;2023-02-11T05:42:22;5.28;;;3.25;;
38811;SDS011;24553;51.640;-0.752;2023-02-11T05:44:47;2.47;;;2.20;;
38811;SDS011;24553;51.640;-0.752;2023-02-11T05:47:13;7.20;;;2.80;;
38811;SDS011;24553;51.640;-0.752;2023-02-11T05:49:38;5.65;;;1.60;;
38811;SDS011;24553;51.640;-0.752;2023-02-11T05:52:03;6.28;;;3.03;;
38811;SDS011;24553;51.640;-0.752;2023-02-11T05:54:29;5.00;;;2.78;;
38811;SDS011;24553;51.640;-0.752;2023-02-11T05:56:54;3.78;;;2.78;;
38811;SDS011;24553;51.640;-0.752;2023-02-11T05:59:20;6.90;;;1.92;;
38811;SDS011;24553;51.640;-0.752;2023-02-11T06:01:45;3.00;;;1.65;;
38811;SDS011;24553;51.640;-0.752;2023-02-11T06:04:10;2.80;;;1.95;;
38811;SDS011;24553;51.640;-0.752;2023-02-11T06:06:36;3.85;;;1.45;;
38811;SDS011;24553;51.640;-0.752;2023-02-11T06:09:01;6.18;;;2.42;;
38811;SDS011;24553;51.640;-0.752;2023-02-11T06:11:26;4.80;;;1.63;;
38811;SDS011;24553;51.640;-0.752;2023-02-11T06:13:52;3.67;;;2.03;;
38811;SDS011;24553;51.640;-0.752;2023-02-11T06:16:17;2.92;;;1.40;;
38811;SDS011;24553;51.640;-0.752;2023-02-11T06:18:42;4.05;;;1.60;;
38811;SDS011;24553;51.640;-0.752;2023-02-11T06:21:08;3.65;;;1.48;;
38811;SDS011;24553;51.640;-0.752;2023-02-11T06:23:35;4.80;;;1.27;;
38811;SDS011;24553;51.640;-0.752;2023-02-11T06:26:02;6.05;;;1.48;;
38811;SDS011;24553;51.640;-0.752;2023-02-11T06:28:39;4.53;;;1.40;;
38811;SDS011;24553;51.640;-0.752;2023-02-11T06:31:05;2.88;;;1.73;;
38811;SDS011;24553;51.640;-0.752;2023-02-11T06:33:31;3.72;;;1.73;;
38811;SDS011;24553;51.640;-0.752;2023-02-11T06:35:57;3.42;;;1.77;;
38811;SDS011;24553;51.640;-0.752;2023-02-11T06:38:22;4.80;;;1.52;;
38811;SDS011;24553;51.640;-0.752;2023-02-11T06:40:47;2.15;;;1.65;;
38811;SDS011;24553;51.640;-0.752;2023-02-11T06:43:13;5.00;;;1.67;;
38811;SDS011;24553;51.640;-0.752;2023-02-11T06:45:38;3.58;;;1.55;;
38811;SDS011;24553;51.640;-0.752;2023-02-11T06:48:04;2.63;;;1.23;;
38811;SDS011;24553;51.640;-0.752;2023-02-11T06:50:29;5.07;;;1.15;;
38811;SDS011;24553;51.640;-0.752;2023-02-11T06:52:54;1.90;;;1.25;;
38811;SDS011;24553;51.640;-0.752;2023-02-11T06:55:20;2.03;;;1.40;;
38811;SDS011;24553;51.640;-0.752;2023-02-11T06:57:45;2.92;;;1.55;;
38811;SDS011;24553;51.640;-0.752;2023-02-11T07:00:11;4.40;;;3.15;;
38811;SDS011;24553;51.640;-0.752;2023-02-11T07:02:37;2.92;;;1.02;;
38811;SDS011;24553;51.640;-0.752;2023-02-11T07:05:03;7.10;;;1.70;;
38811;SDS011;24553;51.640;-0.752;2023-02-11T07:07:30;3.10;;;1.55;;
38811;SDS011;24553;51.640;-0.752;2023-02-11T07:09:56;1.30;;;1.20;;
38811;SDS011;24553;51.640;-0.752;2023-02-11T07:12:21;3.00;;;1.42;;
38811;SDS011;24553;51.640;-0.752;2023-02-11T07:14:47;2.83;;;1.10;;
38811;SDS011;24553;51.640;-0.752;2023-02-11T07:17:12;1.02;;;0.88;;
38811;SDS011;24553;51.640;-0.752;2023-02-11T07:19:37;6.95;;;1.65;;
38811;SDS011;24553;51.640;-0.752;2023-02-11T07:22:03;2.30;;;0.80;;
38811;SDS011;24553;51.640;-0.752;2023-02-11T07:24:28;2.75;;;1.17;;
38811;SDS011;24553;51.640;-0.752;2023-02-11T07:26:54;2.47;;;0.93;;
38811;SDS011;24553;51.640;-0.752;2023-02-11T07:29:19;0.68;;;0.22;;
38811;SDS011;24553;51.640;-0.752;2023-02-11T07:31:44;0.73;;;0.60;;
38811;SDS011;24553;51.640;-0.752;2023-02-11T07:34:10;3.25;;;0.93;;
38811;SDS011;24553;51.640;-0.752;2023-02-11T07:36:35;3.03;;;1.10;;
38811;SDS011;24553;51.640;-0.752;2023-02-11T07:39:01;2.95;;;0.40;;
38811;SDS011;24553;51.640;-0.752;2023-02-11T07:41:26;3.58;;;0.22;;
38811;SDS011;24553;51.640;-0.752;2023-02-11T07:43:52;4.20;;;1.75;;
38811;SDS011;24553;51.640;-0.752;2023-02-11T07:46:19;1.48;;;0.73;;
38811;SDS011;24553;51.640;-0.752;2023-02-11T07:48:45;2.38;;;0.57;;
38811;SDS011;24553;51.640;-0.752;2023-02-11T07:51:14;8.80;;;1.23;;
38811;SDS011;24553;51.640;-0.752;2023-02-11T07:53:41;3.40;;;0.90;;
38811;SDS011;24553;51.640;-0.752;2023-02-11T07:56:08;2.67;;;0.68;;
38811;SDS011;24553;51.640;-0.752;2023-02-11T07:58:34;2.75;;;0.30;;
38811;SDS011;24553;51.640;-0.752;2023-02-11T08:01:04;1.35;;;0.98;;
38811;SDS011;24553;51.640;-0.752;2023-02-11T08:03:31;4.93;;;1.00;;
38811;SDS011;24553;51.640;-0.752;2023-02-11T08:05:57;3.33;;;0.40;;
38811;SDS011;24553;51.640;-0.752;2023-02-11T08:08:24;1.73;;;0.70;;
38811;SDS011;24553;51.640;-0.752;2023-02-11T08:10:50;1.35;;;0.25;;
38811;SDS011;24553;51.640;-0.752;2023-02-11T08:13:16;5.40;;;1.48;;
38811;SDS011;24553;51.640;-0.752;2023-02-11T08:15:41;0.40;;;0.25;;
38811;SDS011;24553;51.640;-0.752;2023-02-11T08:18:07;2.50;;;0.90;;
38811;SDS011;24553;51.640;-0.752;2023-02-11T08:20:32;1.42;;;0.30;;
38811;SDS011;24553;51.640;-0.752;2023-02-11T08:22:58;0.95;;;0.52;;
38811;SDS011;24553;51.640;-0.752;2023-02-11T08:25:23;5.82;;;0.50;;
38811;SDS011;24553;51.640;-0.752;2023-02-11T08:27:48;1.20;;;0.30;;
38811;SDS011;24553;51.640;-0.752;2023-02-11T08:30:14;1.50;;;0.40;;
38811;SDS011;24553;51.640;-0.752;2023-02-11T08:32:39;3.05;;;0.20;;
38811;SDS011;24553;51.640;-0.752;2023-02-11T08:35:05;2.83;;;0.28;;
38811;SDS011;24553;51.640;-0.752;2023-02-11T08:37:32;2.88;;;0.47;;
38811;SDS011;24553;51.640;-0.752;2023-02-11T08:39:57;0.35;;;0.10;;
38811;SDS011;24553;51.640;-0.752;2023-02-11T08:42:23;0.10;;;0.10;;
38811;SDS011;24553;51.640;-0.752;2023-02-11T08:44:48;6.13;;;0.50;;
38811;SDS011;24553;51.640;-0.752;2023-02-11T08:47:13;2.38;;;0.70;;
38811;SDS011;24553;51.640;-0.752;2023-02-11T08:49:39;1.13;;;1.02;;
38811;SDS011;24553;51.640;-0.752;2023-02-11T08:52:06;1.27;;;0.10;;
38811;SDS011;24553;51.640;-0.752;2023-02-11T08:54:32;3.88;;;0.60;;
38811;SDS011;24553;51.640;-0.752;2023-02-11T08:56:57;2.28;;;0.00;;
38811;SDS011;24553;51.640;-0.752;2023-02-11T08:59:22;0.38;;;0.28;;
38811;SDS011;24553;51.640;-0.752;2023-02-11T09:01:48;0.43;;;0.43;;
38811;SDS011;24553;51.640;-0.752;2023-02-11T09:04:14;0.25;;;0.20;;
38811;SDS011;24553;51.640;-0.752;2023-02-11T09:06:39;0.90;;;0.20;;
38811;SDS011;24553;51.640;-0.752;2023-02-11T09:09:05;2.22;;;0.28;;
38811;SDS011;24553;51.640;-0.752;2023-02-11T09:11:34;0.93;;;0.35;;
38811;SDS011;24553;51.640;-0.752;2023-02-11T09:14:00;1.38;;;0.25;;
38811;SDS011;24553;51.640;-0.752;2023-02-11T09:16:28;8.57;;;1.20;;
38811;SDS011;24553;51.640;-0.752;2023-02-11T09:18:55;2.28;;;0.50;;
38811;SDS011;24553;51.640;-0.752;2023-02-11T09:21:22;1.45;;;0.25;;
38811;SDS011;24553;51.640;-0.752;2023-02-11T09:23:47;0.10;;;0.10;;
38811;SDS011;24553;51.640;-0.752;2023-02-11T09:26:17;2.22;;;0.10;;
38811;SDS011;24553;51.640;-0.752;2023-02-11T09:28:50;2.55;;;0.08;;
38811;SDS011;24553;51.640;-0.752;2023-02-11T09:31:17;1.65;;;0.10;;
38811;SDS011;24553;51.640;-0.752;2023-02-11T09:33:47;1.20;;;0.10;;
38811;SDS011;24553;51.640;-0.752;2023-02-11T09:36:15;2.58;;;0.30;;
38811;SDS011;24553;51.640;-0.752;2023-02-11T09:39:01;0.93;;;0.38;;
38811;SDS011;24553;51.640;-0.752;2023-02-11T09:41:38;3.83;;;0.22;;
38811;SDS011;24553;51.640;-0.752;2023-02-11T09:44:17;0.88;;;0.15;;
38811;SDS011;24553;51.640;-0.752;2023-02-11T09:46:46;1.30;;;0.20;;
38811;SDS011;24553;51.640;-0.752;2023-02-11T09:49:19;0.22;;;0.10;;
38811;SDS011;24553;51.640;-0.752;2023-02-11T09:51:50;4.13;;;0.13;;
38811;SDS011;24553;51.640;-0.752;2023-02-11T09:54:29;1.15;;;0.65;;
38811;SDS011;24553;51.640;-0.752;2023-02-11T09:56:59;2.45;;;0.63;;
38811;SDS011;24553;51.640;-0.752;2023-02-11T09:59:25;0.40;;;0.20;;
38811;SDS011;24553;51.640;-0.752;2023-02-11T10:01:57;4.93;;;0.25;;
38811;SDS011;24553;51.640;-0.752;2023-02-11T10:06:56;0.17;;;0.10;;
38811;SDS011;24553;51.640;-0.752;2023-02-11T10:12:10;0.65;;;0.40;;
38811;SDS011;24553;51.640;-0.752;2023-02-11T10:22:42;0.40;;;0.10;;
38811;SDS011;24553;51.640;-0.752;2023-02-11T10:27:48;5.10;;;1.35;;
38811;SDS011;24553;51.640;-0.752;2023-02-11T10:30:20;6.05;;;1.73;;
38811;SDS011;24553;51.640;-0.752;2023-02-11T10:32:51;3.60;;;0.20;;
38811;SDS011;24553;51.640;-0.752;2023-02-11T10:35:24;1.13;;;0.10;;
38811;SDS011;24553;51.640;-0.752;2023-02-11T10:37:51;2.95;;;0.45;;
38811;SDS011;24553;51.640;-0.752;2023-02-11T10:40:19;1.23;;;0.25;;
38811;SDS011;24553;51.640;-0.752;2023-02-11T10:42:51;1.38;;;0.30;;
38811;SDS011;24553;51.640;-0.752;2023-02-11T10:45:21;1.50;;;0.93;;
38811;SDS011;24553;51.640;-0.752;2023-02-11T10:47:51;7.47;;;0.40;;
38811;SDS011;24553;51.640;-0.752;2023-02-11T10:50:19;3.33;;;0.10;;
38811;SDS011;24553;51.640;-0.752;2023-02-11T10:52:50;1.85;;;0.20;;
38811;SDS011;24553;51.640;-0.752;2023-02-11T10:57:57;3.30;;;0.20;;
38811;SDS011;24553;51.640;-0.752;2023-02-11T11:02:54;1.52;;;0.55;;
38811;SDS011;24553;51.640;-0.752;2023-02-11T11:05:25;1.25;;;0.30;;
38811;SDS011;24553;51.640;-0.752;2023-02-11T11:08:09;5.25;;;1.25;;
38811;SDS011;24553;51.640;-0.752;2023-02-11T11:15:44;2.35;;;0.43;;
38811;SDS011;24553;51.640;-0.752;2023-02-11T11:18:19;1.90;;;0.45;;
38811;SDS011;24553;51.640;-0.752;2023-02-11T11:20:58;3.97;;;0.70;;
38811;SDS011;24553;51.640;-0.752;2023-02-11T11:23:26;4.95;;;0.55;;
38811;SDS011;24553;51.640;-0.752;2023-02-11T11:26:00;5.00;;;0.95;;
38811;SDS011;24553;51.640;-0.752;2023-02-11T11:28:30;0.57;;;0.50;;
38811;SDS011;24553;51.640;-0.752;2023-02-11T11:31:16;0.50;;;0.15;;
38811;SDS011;24553;51.640;-0.752;2023-02-11T11:33:44;5.30;;;0.45;;
38811;SDS011;24553;51.640;-0.752;2023-02-11T11:36:12;4.57;;;0.28;;
38811;SDS011;24553;51.640;-0.752;2023-02-11T11:38:44;0.95;;;0.17;;
38811;SDS011;24553;51.640;-0.752;2023-02-11T11:41:35;1.38;;;0.08;;
38811;SDS011;24553;51.640;-0.752;2023-02-11T11:44:01;2.63;;;0.50;;
38811;SDS011;24553;51.640;-0.752;2023-02-11T11:46:41;1.13;;;0.15;;
38811;SDS011;24553;51.640;-0.752;2023-02-11T11:49:11;2.28;;;0.10;;
38811;SDS011;24553;51.640;-0.752;2023-02-11T11:54:58;3.53;;;0.60;;
38811;SDS011;24553;51.640;-0.752;2023-02-11T11:57:28;1.27;;;0.13;;
38811;SDS011;24553;51.640;-0.752;2023-02-11T11:59:58;0.08;;;0.08;;
38811;SDS011;24553;51.640;-0.752;2023-02-11T12:05:08;0.95;;;0.10;;
38811;SDS011;24553;51.640;-0.752;2023-02-11T12:07:43;0.50;;;0.00;;
38811;SDS011;24553;51.640;-0.752;2023-02-11T12:28:53;1.38;;;0.10;;
38811;SDS011;24553;51.640;-0.752;2023-02-11T12:33:59;0.68;;;0.65;;
38811;SDS011;24553;51.640;-0.752;2023-02-11T12:36:40;0.43;;;0.00;;
38811;SDS011;24553;51.640;-0.752;2023-02-11T12:44:39;0.90;;;0.15;;
38811;SDS011;24553;51.640;-0.752;2023-02-11T12:55:45;3.50;;;0.47;;
38811;SDS011;24553;51.640;-0.752;2023-02-11T12:58:16;2.38;;;0.28;;
38811;SDS011;24553;51.640;-0.752;2023-02-11T13:00:50;1.15;;;0.63;;
38811;SDS011;24553;51.640;-0.752;2023-02-11T13:03:29;2.67;;;1.10;;
38811;SDS011;24553;51.640;-0.752;2023-02-11T13:06:00;0.45;;;0.20;;
38811;SDS011;24553;51.640;-0.752;2023-02-11T13:08:36;1.55;;;0.10;;
38811;SDS011;24553;51.640;-0.752;2023-02-11T13:11:06;0.43;;;0.00;;
38811;SDS011;24553;51.640;-0.752;2023-02-11T13:13:47;1.17;;;0.20;;
38811;SDS011;24553;51.640;-0.752;2023-02-11T13:16:32;2.40;;;0.65;;
38811;SDS011;24553;51.640;-0.752;2023-02-11T13:22:02;0.95;;;0.75;;
38811;SDS011;24553;51.640;-0.752;2023-02-11T13:35:29;4.93;;;0.30;;
38811;SDS011;24553;51.640;-0.752;2023-02-11T13:38:18;0.50;;;0.13;;
38811;SDS011;24553;51.640;-0.752;2023-02-11T13:40:45;0.47;;;0.00;;
38811;SDS011;24553;51.640;-0.752;2023-02-11T13:43:24;0.47;;;0.08;;
38811;SDS011;24553;51.640;-0.752;2023-02-11T13:46:03;1.80;;;0.00;;
38811;SDS011;24553;51.640;-0.752;2023-02-11T13:48:32;3.58;;;1.48;;
38811;SDS011;24553;51.640;-0.752;2023-02-11T13:51:09;17.67;;;5.57;;
38811;SDS011;24553;51.640;-0.752;2023-02-11T13:53:53;3.58;;;0.80;;
38811;SDS011;24553;51.640;-0.752;2023-02-11T13:56:28;5.28;;;0.20;;
38811;SDS011;24553;51.640;-0.752;2023-02-11T13:58:56;0.70;;;0.30;;
38811;SDS011;24553;51.640;-0.752;2023-02-11T14:04:33;1.88;;;0.10;;
38811;SDS011;24553;51.640;-0.752;2023-02-11T14:13:39;1.23;;;0.05;;
38811;SDS011;24553;51.640;-0.752;2023-02-11T14:16:08;0.88;;;0.17;;
38811;SDS011;24553;51.640;-0.752;2023-02-11T14:21:18;4.63;;;1.23;;
38811;SDS011;24553;51.640;-0.752;2023-02-11T14:23:47;1.45;;;0.10;;
38811;SDS011;24553;51.640;-0.752;2023-02-11T14:28:52;1.33;;;0.15;;
38811;SDS011;24553;51.640;-0.752;2023-02-11T14:31:38;2.83;;;0.43;;
38811;SDS011;24553;51.640;-0.752;2023-02-11T14:40:32;1.95;;;0.00;;
38811;SDS011;24553;51.640;-0.752;2023-02-11T14:43:13;1.75;;;0.10;;
38811;SDS011;24553;51.640;-0.752;2023-02-11T14:45:49;1.02;;;0.17;;
38811;SDS011;24553;51.640;-0.752;2023-02-11T14:48:18;0.93;;;0.13;;
38811;SDS011;24553;51.640;-0.752;2023-02-11T14:50:49;1.23;;;0.10;;
38811;SDS011;24553;51.640;-0.752;2023-02-11T14:53:18;0.95;;;0.52;;
38811;SDS011;24553;51.640;-0.752;2023-02-11T14:55:48;3.70;;;0.40;;
38811;SDS011;24553;51.640;-0.752;2023-02-11T14:58:20;1.80;;;0.20;;
38811;SDS011;24553;51.640;-0.752;2023-02-11T15:03:25;3.33;;;0.28;;
38811;SDS011;24553;51.640;-0.752;2023-02-11T15:05:57;0.40;;;0.10;;
38811;SDS011;24553;51.640;-0.752;2023-02-11T15:08:31;2.05;;;0.10;;
38811;SDS011;24553;51.640;-0.752;2023-02-11T15:11:01;3.78;;;0.40;;
38811;SDS011;24553;51.640;-0.752;2023-02-11T15:13:31;32.75;;;3.10;;
38811;SDS011;24553;51.640;-0.752;2023-02-11T15:15:58;0.17;;;0.10;;
38811;SDS011;24553;51.640;-0.752;2023-02-11T15:18:33;4.90;;;0.20;;
38811;SDS011;24553;51.640;-0.752;2023-02-11T15:21:03;3.17;;;0.05;;
38811;SDS011;24553;51.640;-0.752;2023-02-11T15:23:29;0.40;;;0.25;;
38811;SDS011;24553;51.640;-0.752;2023-02-11T15:25:55;0.32;;;0.32;;
38811;SDS011;24553;51.640;-0.752;2023-02-11T15:28:22;0.28;;;0.00;;
38811;SDS011;24553;51.640;-0.752;2023-02-11T15:31:13;1.15;;;0.08;;
38811;SDS011;24553;51.640;-0.752;2023-02-11T15:33:40;0.57;;;0.00;;
38811;SDS011;24553;51.640;-0.752;2023-02-11T15:36:05;1.20;;;0.10;;
38811;SDS011;24553;51.640;-0.752;2023-02-11T15:38:34;0.77;;;0.50;;
38811;SDS011;24553;51.640;-0.752;2023-02-11T15:41:01;5.82;;;1.25;;
38811;SDS011;24553;51.640;-0.752;2023-02-11T15:43:47;4.47;;;0.40;;
38811;SDS011;24553;51.640;-0.752;2023-02-11T15:46:21;1.98;;;0.28;;
38811;SDS011;24553;51.640;-0.752;2023-02-11T15:48:48;4.68;;;0.35;;
38811;SDS011;24553;51.640;-0.752;2023-02-11T15:51:23;3.03;;;0.13;;
38811;SDS011;24553;51.640;-0.752;2023-02-11T15:53:57;4.32;;;0.20;;
38811;SDS011;24553;51.640;-0.752;2023-02-11T15:56:29;1.85;;;0.38;;
38811;SDS011;24553;51.640;-0.752;2023-02-11T15:58:57;9.48;;;0.90;;
38811;SDS011;24553;51.640;-0.752;2023-02-11T16:01:34;3.45;;;1.45;;
38811;SDS011;24553;51.640;-0.752;2023-02-11T16:04:01;4.75;;;0.40;;
38811;SDS011;24553;51.640;-0.752;2023-02-11T16:06:36;2.95;;;0.40;;
38811;SDS011;24553;51.640;-0.752;2023-02-11T16:11:36;1.52;;;0.88;;
38811;SDS011;24553;51.640;-0.752;2023-02-11T16:14:22;1.65;;;0.40;;
38811;SDS011;24553;51.640;-0.752;2023-02-11T16:19:49;1.98;;;0.30;;
38811;SDS011;24553;51.640;-0.752;2023-02-11T16:22:18;4.03;;;0.73;;
38811;SDS011;24553;51.640;-0.752;2023-02-11T16:24:47;1.92;;;0.50;;
38811;SDS011;24553;51.640;-0.752;2023-02-11T16:29:49;2.72;;;0.38;;
38811;SDS011;24553;51.640;-0.752;2023-02-11T16:34:45;5.78;;;0.20;;
38811;SDS011;24553;51.640;-0.752;2023-02-11T16:37:11;1.05;;;0.20;;
38811;SDS011;24553;51.640;-0.752;2023-02-11T16:39:36;0.93;;;0.20;;
38811;SDS011;24553;51.640;-0.752;2023-02-11T16:42:02;2.42;;;0.95;;
38811;SDS011;24553;51.640;-0.752;2023-02-11T16:44:28;1.63;;;0.20;;
38811;SDS011;24553;51.640;-0.752;2023-02-11T16:46:54;5.78;;;1.23;;
38811;SDS011;24553;51.640;-0.752;2023-02-11T16:49:24;2.58;;;0.85;;
38811;SDS011;24553;51.640;-0.752;2023-02-11T16:51:54;0.75;;;0.30;;
38811;SDS011;24553;51.640;-0.752;2023-02-11T16:54:21;2.70;;;0.08;;
38811;SDS011;24553;51.640;-0.752;2023-02-11T16:56:47;0.80;;;0.10;;
38811;SDS011;24553;51.640;-0.752;2023-02-11T16:59:13;6.95;;;0.75;;
38811;SDS011;24553;51.640;-0.752;2023-02-11T17:01:39;5.50;;;1.38;;
38811;SDS011;24553;51.640;-0.752;2023-02-11T17:04:06;3.33;;;1.30;;
38811;SDS011;24553;51.640;-0.752;2023-02-11T17:06:40;0.68;;;0.25;;
38811;SDS011;24553;51.640;-0.752;2023-02-11T17:09:05;1.10;;;0.20;;
38811;SDS011;24553;51.640;-0.752;2023-02-11T17:11:31;1.63;;;0.40;;
38811;SDS011;24553;51.640;-0.752;2023-02-11T17:13:57;8.13;;;2.00;;
38811;SDS011;24553;51.640;-0.752;2023-02-11T17:16:22;4.57;;;2.08;;
38811;SDS011;24553;51.640;-0.752;2023-02-11T17:18:48;14.07;;;6.13;;